Time;durP1;ratioP1;P1;durP2;ratioP2;P2;SDS_P1;SDS_P2;PMS_P1;PMS_P2;Temp;Humidity;BMP_temperature;BMP_pressure;BME280_temperature;BME280_humidity;BME280_pressure;Samples;Min_cycle;Max_cycle;Signal;HPM_P1;HPM_P2
2023/10/11 00:00:24;;;;;;;10.73;6.30;;;20.20;99.90;;;;;;2082884;28;20400;-72
2023/10/11 00:01:23;;;;;;;10.63;5.78;;;20.20;99.90;;;;;;2085112;28;20507;-73
2023/10/11 00:02:26;;;;;;;8.27;5.47;;;20.20;99.90;;;;;;2083518;28;20392;-72
2023/10/11 00:04:27;;;;;;;9.93;6.43;;;20.20;99.90;;;;;;2085756;28;20147;-72
2023/10/11 00:05:35;;;;;;;9.20;6.20;;;20.20;99.90;;;;;;2082282;28;20021;-72
2023/10/11 00:06:36;;;;;;;13.90;6.85;;;20.20;99.90;;;;;;2081645;28;20043;-73
2023/10/11 00:07:37;;;;;;;10.57;6.72;;;20.20;99.90;;;;;;2075106;28;20037;-72
2023/10/11 00:08:40;;;;;;;8.90;6.43;;;20.20;99.90;;;;;;2082688;28;20440;-73
2023/10/11 00:09:40;;;;;;;8.10;5.03;;;20.20;99.90;;;;;;2083910;28;20083;-73
2023/10/11 00:10:54;;;;;;;10.45;6.15;;;20.20;99.90;;;;;;2082410;28;20082;-71
2023/10/11 00:11:56;;;;;;;11.48;5.82;;;20.20;99.90;;;;;;2083698;28;20088;-72
2023/10/11 00:12:58;;;;;;;10.98;7.13;;;20.20;99.90;;;;;;2083422;28;20041;-73
2023/10/11 00:13:59;;;;;;;9.90;5.95;;;20.20;99.90;;;;;;2082928;28;20067;-72
2023/10/11 00:15:00;;;;;;;8.05;6.03;;;20.20;99.90;;;;;;2083609;28;20025;-72
2023/10/11 00:16:08;;;;;;;7.47;5.68;;;20.20;99.90;;;;;;2080488;28;20079;-73
2023/10/11 00:17:09;;;;;;;9.98;5.82;;;20.20;99.90;;;;;;2082207;28;20034;-72
2023/10/11 00:18:10;;;;;;;8.43;6.25;;;20.10;99.90;;;;;;2083821;28;20029;-72
2023/10/11 00:19:15;;;;;;;8.15;5.82;;;20.10;99.90;;;;;;2083360;28;20362;-73
2023/10/11 00:20:19;;;;;;;10.55;6.40;;;20.10;99.90;;;;;;2082916;28;20017;-73
2023/10/11 00:21:27;;;;;;;10.13;6.07;;;20.10;99.90;;;;;;2082161;28;20013;-71
2023/10/11 00:22:35;;;;;;;8.25;5.57;;;20.10;99.90;;;;;;2079949;28;20033;-72
2023/10/11 00:23:43;;;;;;;12.43;7.25;;;20.10;99.90;;;;;;2078582;28;20076;-73
2023/10/11 00:24:44;;;;;;;11.77;7.32;;;20.10;99.90;;;;;;2085371;28;20029;-72
2023/10/11 00:25:45;;;;;;;12.10;7.80;;;20.10;99.90;;;;;;2083236;28;20041;-72
2023/10/11 00:26:49;;;;;;;11.25;7.55;;;20.10;99.90;;;;;;2082920;28;20021;-72
2023/10/11 00:27:58;;;;;;;8.93;7.43;;;20.10;99.90;;;;;;2083600;28;20029;-73
2023/10/11 00:29:00;;;;;;;11.50;7.85;;;20.00;99.90;;;;;;2084089;28;20072;-73
2023/10/11 00:30:02;;;;;;;13.23;8.30;;;20.00;99.90;;;;;;2082847;28;20025;-72
2023/10/11 00:31:02;;;;;;;13.95;9.00;;;20.00;99.90;;;;;;2082878;28;20076;-72
2023/10/11 00:32:04;;;;;;;11.50;9.10;;;20.00;99.90;;;;;;2081756;28;20112;-72
2023/10/11 00:33:07;;;;;;;11.82;9.23;;;20.00;99.90;;;;;;2082686;28;20082;-73
2023/10/11 00:34:10;;;;;;;12.30;8.38;;;20.00;99.90;;;;;;2083082;28;20042;-73
2023/10/11 00:35:18;;;;;;;11.45;8.93;;;20.00;99.90;;;;;;2083355;28;20037;-73
2023/10/11 00:36:26;;;;;;;11.73;9.60;;;20.00;99.90;;;;;;2082730;28;20127;-72
2023/10/11 00:37:27;;;;;;;10.35;8.57;;;20.00;99.90;;;;;;2083524;28;20022;-72
2023/10/11 00:38:27;;;;;;;12.52;9.27;;;20.00;99.90;;;;;;2086702;28;20036;-72
2023/10/11 00:39:28;;;;;;;11.75;9.13;;;20.00;99.90;;;;;;2078815;28;20026;-72
2023/10/11 00:40:32;;;;;;;15.48;7.50;;;20.00;99.90;;;;;;2082970;28;20408;-73
2023/10/11 00:41:39;;;;;;;10.57;7.07;;;20.00;99.90;;;;;;2085743;28;20034;-72
2023/10/11 00:42:40;;;;;;;10.35;7.07;;;20.00;99.90;;;;;;2086702;28;20060;-72
2023/10/11 00:43:55;;;;;;;16.27;8.27;;;20.00;99.90;;;;;;2091964;28;20021;-73
2023/10/11 00:44:55;;;;;;;13.52;8.60;;;20.00;99.90;;;;;;2084792;28;20116;-72
2023/10/11 00:45:57;;;;;;;11.23;9.07;;;19.90;99.90;;;;;;2083816;28;20021;-72
2023/10/11 00:47:00;;;;;;;11.95;8.40;;;20.00;99.90;;;;;;2081666;28;20421;-72
2023/10/11 00:48:06;;;;;;;13.00;9.13;;;20.00;99.90;;;;;;2082807;28;20052;-72
2023/10/11 00:49:13;;;;;;;16.20;8.80;;;20.00;99.90;;;;;;2081853;28;20033;-72
2023/10/11 00:50:14;;;;;;;12.85;8.45;;;19.90;99.90;;;;;;2083401;28;20701;-74
2023/10/11 00:51:15;;;;;;;14.00;9.05;;;19.90;99.90;;;;;;2082665;28;20044;-73
2023/10/11 00:52:15;;;;;;;13.75;8.32;;;19.90;99.90;;;;;;2083022;28;20051;-73
2023/10/11 00:53:18;;;;;;;11.30;7.82;;;19.90;99.90;;;;;;2083510;28;20120;-74
2023/10/11 00:54:21;;;;;;;13.07;7.35;;;19.90;99.90;;;;;;2082975;28;20579;-72
2023/10/11 00:55:23;;;;;;;13.50;8.02;;;19.90;99.90;;;;;;2083607;28;20021;-74
2023/10/11 00:56:31;;;;;;;13.80;8.75;;;19.90;99.90;;;;;;2083052;28;20025;-72
2023/10/11 00:57:32;;;;;;;12.75;9.68;;;19.90;99.90;;;;;;2084316;28;20354;-73
2023/10/11 00:58:33;;;;;;;13.77;9.93;;;19.80;99.90;;;;;;2083264;28;20128;-73
2023/10/11 00:59:35;;;;;;;15.85;10.90;;;19.90;99.90;;;;;;2081783;28;20104;-73
2023/10/11 01:00:36;;;;;;;16.35;10.90;;;19.90;99.90;;;;;;2082518;28;20024;-73
2023/10/11 01:01:38;;;;;;;16.48;10.68;;;19.80;99.90;;;;;;2083592;28;20027;-73
2023/10/11 01:02:39;;;;;;;13.75;10.40;;;19.80;99.90;;;;;;2081756;28;20571;-73
2023/10/11 01:03:41;;;;;;;16.92;10.60;;;19.80;99.90;;;;;;2082680;28;20039;-73
2023/10/11 01:04:41;;;;;;;13.45;10.93;;;19.80;99.90;;;;;;2083175;28;20131;-73
2023/10/11 01:05:44;;;;;;;18.58;11.43;;;19.80;99.90;;;;;;2081948;28;20033;-73
2023/10/11 01:06:48;;;;;;;22.95;11.05;;;19.80;99.90;;;;;;2081894;28;20052;-73
2023/10/11 01:07:53;;;;;;;17.80;10.93;;;19.80;99.90;;;;;;2083003;28;20036;-72
2023/10/11 01:08:54;;;;;;;14.13;9.80;;;19.80;99.90;;;;;;2079437;28;20025;-73
2023/10/11 01:09:56;;;;;;;12.75;9.55;;;19.80;99.90;;;;;;2081077;28;20029;-73
2023/10/11 01:10:56;;;;;;;13.57;10.20;;;19.80;99.90;;;;;;2081151;28;20039;-73
2023/10/11 01:11:57;;;;;;;14.30;10.73;;;19.80;99.90;;;;;;2080272;28;20045;-73
2023/10/11 01:12:58;;;;;;;13.30;9.43;;;19.80;99.90;;;;;;2081708;28;20507;-73
2023/10/11 01:13:58;;;;;;;14.95;11.15;;;19.80;99.90;;;;;;2081508;28;20111;-73
2023/10/11 01:14:59;;;;;;;14.85;9.40;;;19.80;99.90;;;;;;2084468;28;20044;-74
2023/10/11 01:16:05;;;;;;;13.27;10.40;;;19.80;99.90;;;;;;2085055;28;20025;-73
2023/10/11 01:17:07;;;;;;;14.13;9.98;;;19.80;99.90;;;;;;2081763;28;20029;-73
2023/10/11 01:18:08;;;;;;;14.73;10.50;;;19.80;99.90;;;;;;2076114;28;20043;-74
2023/10/11 01:19:11;;;;;;;14.20;10.52;;;19.80;99.90;;;;;;2083195;28;20041;-73
2023/10/11 01:20:17;;;;;;;15.82;11.40;;;19.80;99.90;;;;;;2081196;28;20128;-72
2023/10/11 01:21:19;;;;;;;14.98;11.40;;;19.80;99.90;;;;;;2081299;28;20029;-74
2023/10/11 01:22:19;;;;;;;14.80;11.32;;;19.70;99.90;;;;;;2082247;28;20533;-72
2023/10/11 01:23:21;;;;;;;16.08;12.77;;;19.70;99.90;;;;;;2081194;28;20066;-73
2023/10/11 01:24:22;;;;;;;16.48;11.57;;;19.70;99.90;;;;;;2084639;28;20055;-73
2023/10/11 01:25:22;;;;;;;15.52;11.05;;;19.70;99.90;;;;;;2086460;28;20074;-74
2023/10/11 01:26:23;;;;;;;16.27;11.45;;;19.70;99.90;;;;;;2081033;28;20274;-73
2023/10/11 01:27:30;;;;;;;25.50;12.75;;;19.70;99.90;;;;;;2082707;28;20032;-73
2023/10/11 01:28:30;;;;;;;14.63;11.00;;;19.70;99.90;;;;;;2081091;28;20685;-73
2023/10/11 01:29:31;;;;;;;20.27;10.60;;;19.70;99.90;;;;;;2081589;28;20155;-72
2023/10/11 01:30:31;;;;;;;17.10;10.70;;;19.70;99.90;;;;;;2082542;28;20055;-73
2023/10/11 01:31:35;;;;;;;17.30;11.65;;;19.70;99.90;;;;;;2080485;28;20036;-72
2023/10/11 01:32:41;;;;;;;14.85;10.90;;;19.70;99.90;;;;;;2082460;28;20460;-73
2023/10/11 01:33:43;;;;;;;16.40;10.23;;;19.70;99.90;;;;;;2081319;28;20898;-74
2023/10/11 01:34:44;;;;;;;14.82;10.48;;;19.70;99.90;;;;;;2081615;28;20617;-74
2023/10/11 01:35:48;;;;;;;15.85;10.98;;;19.70;99.90;;;;;;2082307;28;20064;-73
2023/10/11 01:36:48;;;;;;;15.40;9.77;;;19.70;99.90;;;;;;2080280;28;20130;-72
2023/10/11 01:37:54;;;;;;;10.38;8.65;;;19.70;99.90;;;;;;2082753;28;20033;-74
2023/10/11 01:39:00;;;;;;;13.60;9.05;;;19.60;99.90;;;;;;2080983;28;20025;-73
2023/10/11 01:40:03;;;;;;;17.08;8.90;;;19.60;99.90;;;;;;2081891;28;20025;-73
2023/10/11 01:41:06;;;;;;;16.00;9.65;;;19.60;99.90;;;;;;2083646;28;20506;-73
2023/10/11 01:42:06;;;;;;;22.67;10.85;;;19.60;99.90;;;;;;2081067;28;20033;-73
2023/10/11 01:43:07;;;;;;;17.30;9.52;;;19.60;99.90;;;;;;2082523;28;20036;-73
2023/10/11 01:44:08;;;;;;;13.45;9.18;;;19.60;99.90;;;;;;2081749;28;20033;-73
2023/10/11 01:45:09;;;;;;;19.38;9.15;;;19.60;99.90;;;;;;2081695;28;20037;-73
2023/10/11 01:46:09;;;;;;;14.93;8.68;;;19.60;99.90;;;;;;2078440;28;20052;-73
2023/10/11 01:47:10;;;;;;;12.85;8.65;;;19.60;99.90;;;;;;2080634;28;20121;-73
2023/10/11 01:48:10;;;;;;;16.15;7.57;;;19.60;99.90;;;;;;2076289;28;20526;-72
2023/10/11 01:49:12;;;;;;;9.50;7.00;;;19.60;99.90;;;;;;2081283;28;20484;-73
2023/10/11 01:50:14;;;;;;;12.63;7.88;;;19.60;99.90;;;;;;2081008;28;20036;-73
2023/10/11 01:51:21;;;;;;;10.57;7.43;;;19.60;99.90;;;;;;2082512;28;20025;-73
2023/10/11 01:52:25;;;;;;;14.35;6.72;;;19.60;99.90;;;;;;2079469;28;20044;-73
2023/10/11 01:53:27;;;;;;;9.50;5.80;;;19.50;99.90;;;;;;2084786;28;20025;-72
2023/10/11 01:54:27;;;;;;;12.25;7.28;;;19.50;99.90;;;;;;2079775;28;20077;-72
2023/10/11 01:55:28;;;;;;;17.77;7.50;;;19.50;99.90;;;;;;2088721;28;20025;-73
2023/10/11 01:56:30;;;;;;;13.35;7.32;;;19.50;99.90;;;;;;2082714;28;20510;-73
2023/10/11 01:57:31;;;;;;;11.07;7.18;;;19.50;99.90;;;;;;2084470;28;20033;-73
2023/10/11 01:58:37;;;;;;;13.60;7.20;;;19.50;99.90;;;;;;2083213;28;20057;-73
2023/10/11 01:59:38;;;;;;;12.52;6.72;;;19.50;99.90;;;;;;2082287;28;20047;-72
2023/10/11 02:00:39;;;;;;;10.70;6.15;;;19.50;99.90;;;;;;2079946;28;20025;-73
2023/10/11 02:01:40;;;;;;;13.90;7.35;;;19.50;99.90;;;;;;2083079;28;20026;-72
2023/10/11 02:02:47;;;;;;;11.43;6.07;;;19.50;99.90;;;;;;2082361;28;20104;-72
2023/10/11 02:03:53;;;;;;;13.35;6.85;;;19.50;99.90;;;;;;2081257;28;20038;-72
2023/10/11 02:04:59;;;;;;;13.02;6.95;;;19.50;99.90;;;;;;2081720;28;20029;-71
2023/10/11 02:06:04;;;;;;;12.23;6.95;;;19.50;99.90;;;;;;2081735;28;20094;-72
2023/10/11 02:07:05;;;;;;;13.52;6.43;;;19.50;99.90;;;;;;2079982;28;20029;-73
2023/10/11 02:08:06;;;;;;;10.85;6.60;;;19.50;99.90;;;;;;2083184;28;20030;-73
2023/10/11 02:09:09;;;;;;;13.48;7.43;;;19.50;99.90;;;;;;2081097;28;20025;-72
2023/10/11 02:10:13;;;;;;;13.52;5.85;;;19.50;99.90;;;;;;2083959;28;20026;-72
2023/10/11 02:11:14;;;;;;;11.82;6.47;;;19.40;99.90;;;;;;2081962;28;20033;-72
2023/10/11 02:12:17;;;;;;;11.38;7.25;;;19.50;99.90;;;;;;2080319;28;20032;-73
2023/10/11 02:13:18;;;;;;;16.25;8.07;;;19.40;99.90;;;;;;2080602;28;20029;-72
2023/10/11 02:14:22;;;;;;;13.18;8.32;;;19.50;99.90;;;;;;2081588;28;20025;-72
2023/10/11 02:15:29;;;;;;;11.60;8.30;;;19.50;99.90;;;;;;2085410;28;20120;-73
2023/10/11 02:16:31;;;;;;;20.52;9.27;;;19.40;99.90;;;;;;2084405;28;20029;-72
2023/10/11 02:17:33;;;;;;;12.77;7.68;;;19.40;99.90;;;;;;2082122;28;20021;-72
2023/10/11 02:18:35;;;;;;;10.50;7.70;;;19.40;99.90;;;;;;2082935;28;20017;-72
2023/10/11 02:19:35;;;;;;;10.63;8.02;;;19.40;99.90;;;;;;2080729;28;20033;-72
2023/10/11 02:20:55;;;;;;;12.27;7.60;;;19.40;99.90;;;;;;2084936;28;20044;-73
2023/10/11 02:21:56;;;;;;;12.35;8.68;;;19.40;99.90;;;;;;2083680;28;20622;-72
2023/10/11 02:22:59;;;;;;;13.70;8.82;;;19.40;99.90;;;;;;2079957;28;20558;-72
2023/10/11 02:24:00;;;;;;;16.70;8.57;;;19.40;99.90;;;;;;2084089;28;20029;-72
2023/10/11 02:25:01;;;;;;;14.55;9.00;;;19.40;99.90;;;;;;2081082;28;20052;-72
2023/10/11 02:26:01;;;;;;;13.07;8.93;;;19.40;99.90;;;;;;2081307;28;20037;-72
2023/10/11 02:27:06;;;;;;;12.07;8.75;;;19.40;99.90;;;;;;2080609;28;20552;-72
2023/10/11 02:28:09;;;;;;;16.30;7.97;;;19.40;99.90;;;;;;2081086;28;20036;-72
2023/10/11 02:29:20;;;;;;;11.32;7.22;;;19.40;99.90;;;;;;2081200;28;20030;-72
2023/10/11 02:30:24;;;;;;;10.70;6.82;;;19.40;99.90;;;;;;2081709;28;20098;-72
2023/10/11 02:31:25;;;;;;;10.00;7.10;;;19.40;99.90;;;;;;2083538;28;20033;-73
2023/10/11 02:32:32;;;;;;;11.68;7.60;;;19.40;99.90;;;;;;2082843;28;20093;-72
2023/10/11 02:33:33;;;;;;;11.20;6.68;;;19.40;99.90;;;;;;2083460;28;20103;-72
2023/10/11 02:34:35;;;;;;;15.40;6.95;;;19.40;99.90;;;;;;2082094;28;20025;-72
2023/10/11 02:35:52;;;;;;;12.10;7.57;;;19.40;99.90;;;;;;2082226;28;20025;-73
2023/10/11 02:37:03;;;;;;;9.98;6.55;;;19.40;99.90;;;;;;2082876;28;20060;-72
2023/10/11 02:38:08;;;;;;;10.60;6.47;;;19.40;99.90;;;;;;2084926;28;20018;-72
2023/10/11 02:39:20;;;;;;;10.80;6.22;;;19.30;99.90;;;;;;2084597;28;20638;-73
2023/10/11 02:40:24;;;;;;;10.88;6.15;;;19.40;99.90;;;;;;2084767;28;20327;-72
2023/10/11 02:41:24;;;;;;;14.07;6.70;;;19.30;99.90;;;;;;2082800;28;20025;-72
2023/10/11 02:42:25;;;;;;;12.65;6.80;;;19.30;99.90;;;;;;2085791;28;20491;-72
2023/10/11 02:43:26;;;;;;;14.15;6.32;;;19.30;99.90;;;;;;2087001;28;20423;-73
2023/10/11 02:44:27;;;;;;;11.55;6.97;;;19.30;99.90;;;;;;2083835;28;20033;-73
2023/10/11 02:45:27;;;;;;;11.35;6.53;;;19.30;99.90;;;;;;2083117;28;20053;-73
2023/10/11 02:46:28;;;;;;;14.52;6.50;;;19.30;99.90;;;;;;2083212;28;20183;-73
2023/10/11 02:47:28;;;;;;;12.98;6.13;;;19.30;99.90;;;;;;2082515;28;20060;-72
2023/10/11 02:48:29;;;;;;;10.73;6.38;;;19.30;99.90;;;;;;2084216;28;20017;-72
2023/10/11 02:49:34;;;;;;;8.60;6.20;;;19.30;99.90;;;;;;2081898;28;20029;-73
2023/10/11 02:50:36;;;;;;;8.32;5.30;;;19.30;99.90;;;;;;2083061;28;20037;-73
2023/10/11 02:51:36;;;;;;;13.00;6.22;;;19.30;99.90;;;;;;2080586;28;20031;-72
2023/10/11 02:52:37;;;;;;;10.32;6.25;;;19.20;99.90;;;;;;2091532;28;20075;-74
2023/10/11 02:53:38;;;;;;;11.52;6.22;;;19.30;99.90;;;;;;2083146;28;20104;-73
2023/10/11 02:54:38;;;;;;;9.05;5.85;;;19.30;99.90;;;;;;2084104;28;20083;-73
2023/10/11 02:55:39;;;;;;;15.75;6.13;;;19.30;99.90;;;;;;2082744;28;20643;-72
2023/10/11 02:56:46;;;;;;;9.35;5.82;;;19.30;99.90;;;;;;2083362;28;20030;-72
2023/10/11 02:57:48;;;;;;;12.52;5.90;;;19.30;99.90;;;;;;2084116;28;20018;-73
2023/10/11 02:58:49;;;;;;;12.07;6.13;;;19.20;99.90;;;;;;2081847;28;20026;-72
2023/10/11 02:59:50;;;;;;;8.98;5.57;;;19.30;99.90;;;;;;2083347;28;20013;-71
2023/10/11 03:00:56;;;;;;;14.25;6.00;;;19.20;99.90;;;;;;2082074;28;20025;-72
2023/10/11 03:01:59;;;;;;;9.15;4.85;;;19.30;99.90;;;;;;2084115;28;20100;-72
2023/10/11 03:03:00;;;;;;;8.90;5.80;;;19.30;99.90;;;;;;2084184;28;20039;-72
2023/10/11 03:04:01;;;;;;;6.97;4.97;;;19.20;99.90;;;;;;2082826;28;20033;-72
2023/10/11 03:05:02;;;;;;;10.57;5.65;;;19.20;99.90;;;;;;2097701;28;20024;-73
2023/10/11 03:06:02;;;;;;;9.88;5.13;;;19.20;99.90;;;;;;2099310;28;20028;-72
2023/10/11 03:07:03;;;;;;;8.40;5.45;;;19.20;99.90;;;;;;2080643;28;20460;-73
2023/10/11 03:08:19;;;;;;;8.38;5.15;;;19.20;99.90;;;;;;2081697;28;20457;-72
2023/10/11 03:09:19;;;;;;;7.32;5.03;;;19.20;99.90;;;;;;2084209;28;20017;-73
2023/10/11 03:10:20;;;;;;;12.68;5.13;;;19.20;99.90;;;;;;2084362;28;20112;-72
2023/10/11 03:11:20;;;;;;;9.00;5.15;;;19.20;99.90;;;;;;2082910;28;20036;-73
2023/10/11 03:12:30;;;;;;;8.30;5.22;;;19.20;99.90;;;;;;2083448;28;20040;-72
2023/10/11 03:13:41;;;;;;;9.88;5.10;;;19.20;99.90;;;;;;2084385;28;20048;-73
2023/10/11 03:14:42;;;;;;;9.30;5.82;;;19.20;99.90;;;;;;2082427;28;20075;-72
2023/10/11 03:15:42;;;;;;;10.00;5.30;;;19.10;99.90;;;;;;2082491;28;20103;-72
2023/10/11 03:16:43;;;;;;;10.20;6.18;;;19.10;99.90;;;;;;2082683;28;20029;-72
2023/10/11 03:17:45;;;;;;;8.57;5.22;;;19.10;99.90;;;;;;2082320;28;20033;-73
2023/10/11 03:18:46;;;;;;;13.48;5.93;;;19.10;99.90;;;;;;2083313;28;20028;-72
2023/10/11 03:19:49;;;;;;;10.20;5.72;;;19.10;99.90;;;;;;2082904;28;21479;-72
2023/10/11 03:20:50;;;;;;;13.70;5.97;;;19.10;99.90;;;;;;2081819;28;20104;-72
2023/10/11 03:21:54;;;;;;;12.70;5.13;;;19.10;99.90;;;;;;2083859;28;20030;-72
2023/10/11 03:22:59;;;;;;;11.63;5.88;;;19.10;99.90;;;;;;2081285;28;20063;-74
2023/10/11 03:24:04;;;;;;;8.75;5.20;;;19.10;99.90;;;;;;2080596;28;20489;-72
2023/10/11 03:25:12;;;;;;;12.27;5.50;;;19.10;99.90;;;;;;2084350;28;20071;-72
2023/10/11 03:26:22;;;;;;;9.52;4.90;;;19.10;99.90;;;;;;2083409;28;20121;-73
2023/10/11 03:27:23;;;;;;;9.32;5.10;;;19.10;99.90;;;;;;2083381;28;20078;-73
2023/10/11 03:28:26;;;;;;;10.82;6.10;;;19.00;99.90;;;;;;2082173;28;20029;-72
2023/10/11 03:29:30;;;;;;;9.45;7.00;;;19.00;99.90;;;;;;2081944;28;20017;-72
2023/10/11 03:30:35;;;;;;;11.13;7.10;;;19.00;99.90;;;;;;2082394;28;20027;-72
2023/10/11 03:31:40;;;;;;;14.10;7.50;;;19.00;99.90;;;;;;2079634;28;20365;-72
2023/10/11 03:32:43;;;;;;;12.60;8.15;;;19.00;99.90;;;;;;2078481;28;20459;-72
2023/10/11 03:33:44;;;;;;;11.10;7.28;;;19.00;99.90;;;;;;2082778;28;20032;-72
2023/10/11 03:34:44;;;;;;;13.98;7.80;;;19.00;99.90;;;;;;2083559;28;20026;-72
2023/10/11 03:35:45;;;;;;;19.38;8.10;;;19.00;99.90;;;;;;2082394;28;20025;-72
2023/10/11 03:36:51;;;;;;;16.38;9.27;;;19.00;99.90;;;;;;2081245;28;20575;-72
2023/10/11 03:37:57;;;;;;;14.77;10.82;;;19.00;99.90;;;;;;2082304;28;20048;-72
2023/10/11 03:38:58;;;;;;;13.93;9.63;;;18.90;99.90;;;;;;2081832;28;20786;-73
2023/10/11 03:39:58;;;;;;;20.05;10.50;;;18.90;99.90;;;;;;2083099;28;20025;-73
2023/10/11 03:41:14;;;;;;;16.88;11.75;;;18.90;99.90;;;;;;2081928;28;20025;-72
2023/10/11 03:42:17;;;;;;;15.38;11.07;;;18.90;99.90;;;;;;2082997;28;20028;-72
2023/10/11 03:43:18;;;;;;;17.48;11.48;;;18.90;99.90;;;;;;2085024;28;20414;-73
2023/10/11 03:44:20;;;;;;;16.27;10.90;;;18.90;99.90;;;;;;2081736;28;20108;-73
2023/10/11 03:45:20;;;;;;;16.83;11.77;;;18.90;99.90;;;;;;2085883;28;20055;-72
2023/10/11 03:46:34;;;;;;;14.20;11.20;;;18.90;99.90;;;;;;2078143;28;20037;-72
2023/10/11 03:47:37;;;;;;;18.30;10.35;;;18.80;99.90;;;;;;2082310;28;20029;-72
2023/10/11 03:48:44;;;;;;;17.55;10.25;;;18.80;99.90;;;;;;2082041;28;20022;-72
2023/10/11 03:49:50;;;;;;;15.95;10.35;;;18.80;99.90;;;;;;2083027;28;20568;-72
2023/10/11 03:50:51;;;;;;;10.25;8.55;;;18.80;99.90;;;;;;2083045;28;20063;-72
2023/10/11 03:51:52;;;;;;;16.15;10.10;;;18.80;99.90;;;;;;2083426;28;20033;-72
2023/10/11 03:53:06;;;;;;;15.63;9.70;;;18.80;99.90;;;;;;2083260;28;20127;-73
2023/10/11 03:54:06;;;;;;;14.80;9.02;;;18.80;99.90;;;;;;2082747;28;20033;-72
2023/10/11 03:55:10;;;;;;;13.07;9.15;;;18.80;99.90;;;;;;2082889;28;20036;-72
2023/10/11 03:56:11;;;;;;;14.93;9.25;;;18.80;99.90;;;;;;2079982;28;20649;-73
2023/10/11 03:57:11;;;;;;;10.70;8.43;;;18.80;99.90;;;;;;2081842;28;20746;-72
2023/10/11 03:58:33;;;;;;;14.32;8.27;;;18.70;99.90;;;;;;2083648;28;20082;-72
2023/10/11 03:59:39;;;;;;;14.40;10.02;;;18.80;99.90;;;;;;2081449;28;20060;-72
2023/10/11 04:00:46;;;;;;;16.63;10.35;;;18.70;99.90;;;;;;2082112;28;20029;-72
2023/10/11 04:01:49;;;;;;;15.30;11.07;;;18.70;99.90;;;;;;2083143;28;20029;-72
2023/10/11 04:02:56;;;;;;;14.02;10.52;;;18.70;99.90;;;;;;2084135;28;20025;-73
2023/10/11 04:03:57;;;;;;;15.63;10.15;;;18.70;99.90;;;;;;2080569;28;20548;-73
2023/10/11 04:04:57;;;;;;;15.18;12.10;;;18.70;99.90;;;;;;2081727;28;21445;-72
2023/10/11 04:05:59;;;;;;;16.70;10.95;;;18.70;99.90;;;;;;2083796;28;20025;-72
2023/10/11 04:07:04;;;;;;;13.88;9.98;;;18.70;99.90;;;;;;2081383;28;20025;-73
2023/10/11 04:08:05;;;;;;;18.00;11.18;;;18.70;99.90;;;;;;2083492;28;20557;-72
2023/10/11 04:10:38;;;;;;;13.15;9.55;;;18.70;99.90;;;;;;2084071;28;20029;-73
2023/10/11 04:11:54;;;;;;;13.90;9.05;;;18.70;99.90;;;;;;2097095;28;20036;-71
2023/10/11 04:12:54;;;;;;;9.95;8.90;;;18.70;99.90;;;;;;2093511;28;20024;-72
2023/10/11 04:13:55;;;;;;;13.18;9.05;;;18.70;99.90;;;;;;2083070;28;20029;-72
2023/10/11 04:14:57;;;;;;;11.05;8.18;;;18.70;99.90;;;;;;2083366;28;20060;-72
2023/10/11 04:15:59;;;;;;;11.57;8.05;;;18.70;99.90;;;;;;2082228;28;20021;-72
2023/10/11 04:17:00;;;;;;;13.02;6.93;;;18.60;99.90;;;;;;2082196;28;20036;-73
2023/10/11 04:18:13;;;;;;;14.48;6.50;;;18.60;99.90;;;;;;2081735;28;20026;-73
2023/10/11 04:19:14;;;;;;;11.40;7.03;;;18.60;99.90;;;;;;2083447;28;20033;-71
2023/10/11 04:20:33;;;;;;;11.85;6.80;;;18.60;99.90;;;;;;2084111;28;20021;-73
2023/10/11 04:21:54;;;;;;;12.90;6.55;;;18.60;99.90;;;;;;2084274;28;20021;-73
2023/10/11 04:23:10;;;;;;;10.23;6.13;;;18.60;99.90;;;;;;2080746;28;20455;-72
2023/10/11 04:24:13;;;;;;;14.98;6.40;;;18.60;99.90;;;;;;2081849;28;20020;-72
2023/10/11 04:25:16;;;;;;;9.23;5.47;;;18.50;99.90;;;;;;2083286;28;20060;-73
2023/10/11 04:28:41;;;;;;;13.02;5.68;;;18.50;99.90;;;;;;2083140;28;20025;-73
2023/10/11 04:29:42;;;;;;;14.02;5.57;;;18.50;99.90;;;;;;2080558;28;20029;-72
2023/10/11 04:30:44;;;;;;;8.40;4.70;;;18.60;99.90;;;;;;2082190;28;20052;-73
2023/10/11 04:33:01;;;;;;;11.55;5.88;;;18.50;99.90;;;;;;2081695;28;20021;-73
2023/10/11 04:34:11;;;;;;;10.65;5.93;;;18.50;99.90;;;;;;2081872;28;20041;-72
2023/10/11 04:36:31;;;;;;;11.70;5.47;;;18.50;99.90;;;;;;2083512;28;20501;-72
2023/10/11 04:37:44;;;;;;;9.20;5.68;;;18.50;99.90;;;;;;2081006;28;20444;-73
2023/10/11 04:38:47;;;;;;;12.63;5.30;;;18.50;99.90;;;;;;2081574;28;20036;-73
2023/10/11 04:39:51;;;;;;;14.35;6.28;;;18.50;99.90;;;;;;2083288;28;20025;-73
2023/10/11 04:40:52;;;;;;;10.10;5.45;;;18.50;99.90;;;;;;2083635;28;20029;-73
2023/10/11 04:41:57;;;;;;;12.77;5.75;;;18.50;99.90;;;;;;2082158;28;20140;-73
2023/10/11 04:44:17;;;;;;;8.80;5.65;;;18.50;99.90;;;;;;2083541;28;20029;-73
2023/10/11 04:45:28;;;;;;;11.88;5.68;;;18.50;99.90;;;;;;2081477;28;20444;-74
2023/10/11 04:46:30;;;;;;;11.27;5.35;;;18.50;99.90;;;;;;2083256;28;20028;-73
2023/10/11 04:47:50;;;;;;;11.45;5.65;;;18.50;99.90;;;;;;2083203;28;20116;-73
2023/10/11 04:48:55;;;;;;;8.73;5.53;;;18.50;99.90;;;;;;2082962;28;20461;-73
2023/10/11 04:49:57;;;;;;;10.27;5.55;;;18.50;99.90;;;;;;2081400;28;21358;-72
2023/10/11 04:51:06;;;;;;;8.85;4.78;;;18.50;99.90;;;;;;2082884;28;20037;-72
2023/10/11 04:52:13;;;;;;;8.75;5.07;;;18.50;99.90;;;;;;2085161;28;20057;-72
2023/10/11 04:53:18;;;;;;;12.88;6.15;;;18.40;99.90;;;;;;2077094;28;20041;-73
2023/10/11 04:54:19;;;;;;;11.02;5.13;;;18.50;99.90;;;;;;2082641;28;20418;-73
2023/10/11 04:55:26;;;;;;;10.07;5.53;;;18.40;99.90;;;;;;2080877;28;20060;-72
2023/10/11 04:58:04;;;;;;;8.15;4.75;;;18.40;99.90;;;;;;2083232;28;20032;-73
2023/10/11 04:59:08;;;;;;;10.35;5.22;;;18.40;99.90;;;;;;2081932;28;20103;-73
2023/10/11 05:00:11;;;;;;;12.05;5.30;;;18.40;99.90;;;;;;2082179;28;20017;-72
2023/10/11 05:01:12;;;;;;;9.45;5.57;;;18.40;99.90;;;;;;2082749;28;20074;-73
2023/10/11 05:02:28;;;;;;;9.77;4.53;;;18.40;99.90;;;;;;2082207;28;20105;-73
2023/10/11 05:03:30;;;;;;;16.63;6.15;;;18.40;99.90;;;;;;2082076;28;20637;-73
2023/10/11 05:04:32;;;;;;;12.57;5.95;;;18.40;99.90;;;;;;2083581;28;20488;-73
2023/10/11 05:05:33;;;;;;;8.02;4.70;;;18.40;99.90;;;;;;2082528;28;20034;-73
2023/10/11 05:06:40;;;;;;;9.88;5.22;;;18.40;99.90;;;;;;2080202;28;20542;-73
2023/10/11 05:07:42;;;;;;;8.65;5.28;;;18.40;99.90;;;;;;2081875;28;20060;-73
2023/10/11 05:08:54;;;;;;;11.32;4.80;;;18.40;99.90;;;;;;2080135;28;20064;-73
2023/10/11 05:10:22;;;;;;;5.75;4.35;;;18.40;99.90;;;;;;2081975;28;20116;-73
2023/10/11 05:11:32;;;;;;;11.73;5.80;;;18.40;99.90;;;;;;2081032;28;20033;-72
2023/10/11 05:12:41;;;;;;;7.05;4.63;;;18.40;99.90;;;;;;2081866;28;20074;-74
2023/10/11 05:13:58;;;;;;;13.32;4.82;;;18.40;99.90;;;;;;2080200;28;20025;-73
2023/10/11 05:15:06;;;;;;;13.43;5.47;;;18.30;99.90;;;;;;2082216;28;20078;-72
2023/10/11 05:16:07;;;;;;;12.60;5.88;;;18.30;99.90;;;;;;2080895;28;20490;-74
2023/10/11 05:18:23;;;;;;;11.23;5.75;;;18.30;99.90;;;;;;2082918;28;20421;-72
2023/10/11 05:19:27;;;;;;;6.88;4.97;;;18.30;99.90;;;;;;2081129;28;20036;-72
2023/10/11 05:20:47;;;;;;;8.38;4.88;;;18.30;99.90;;;;;;2080174;28;20025;-73
2023/10/11 05:21:52;;;;;;;11.13;4.90;;;18.30;99.90;;;;;;2082709;28;20024;-73
2023/10/11 05:23:02;;;;;;;7.82;4.72;;;18.30;99.90;;;;;;2081290;28;20055;-73
2023/10/11 05:24:14;;;;;;;10.25;5.18;;;18.30;99.90;;;;;;2083724;28;20032;-72
2023/10/11 05:26:45;;;;;;;8.10;5.15;;;18.30;99.90;;;;;;2082090;28;20356;-73
2023/10/11 05:28:07;;;;;;;9.93;5.30;;;18.30;99.90;;;;;;2080476;28;20050;-73
2023/10/11 05:29:23;;;;;;;12.48;5.15;;;18.30;99.90;;;;;;2080678;28;20119;-73
2023/10/11 05:31:34;;;;;;;9.98;5.20;;;18.20;99.90;;;;;;2080829;28;20026;-73
2023/10/11 05:32:48;;;;;;;9.15;5.15;;;18.20;99.90;;;;;;2079970;28;20044;-72
2023/10/11 05:34:12;;;;;;;11.45;5.45;;;18.20;99.90;;;;;;2079855;28;20148;-73
2023/10/11 05:50:57;;;;;;;7.30;4.68;;;18.20;99.90;;;;;;2082227;28;20037;-73
2023/10/11 05:51:58;;;;;;;9.20;5.03;;;18.20;99.90;;;;;;2081137;28;20033;-73
2023/10/11 05:52:58;;;;;;;11.10;5.13;;;18.20;99.90;;;;;;2081171;28;20461;-73
2023/10/11 05:54:03;;;;;;;12.25;4.95;;;18.20;99.90;;;;;;2080098;28;20030;-72
2023/10/11 05:55:06;;;;;;;8.05;4.45;;;18.20;99.90;;;;;;2082213;28;20021;-73
2023/10/11 05:56:08;;;;;;;9.45;4.88;;;18.20;99.90;;;;;;2082112;28;20028;-73
2023/10/11 05:57:11;;;;;;;8.18;4.55;;;18.20;99.90;;;;;;2079747;28;20021;-73
2023/10/11 05:58:13;;;;;;;8.30;4.78;;;18.20;99.90;;;;;;2084420;28;20048;-73
2023/10/11 05:59:16;;;;;;;12.15;5.20;;;18.30;99.90;;;;;;2082666;28;20024;-73